Time;durP1;ratioP1;P1;durP2;ratioP2;P2;SDS_P1;SDS_P2;PMS_P1;PMS_P2;Temp;Humidity;BMP_temperature;BMP_pressure;BME280_temperature;BME280_humidity;BME280_pressure;Samples;Min_cycle;Max_cycle;Signal;HPM_P1;HPM_P2
2022/04/04 00:01:21;;;;;;;;;20.00;16.00;;;;;;;;5118696;28;11959;-76
2022/04/04 00:03:46;;;;;;;;;16.33;15.33;;;;;;;;5118829;28;13820;-78
2022/04/04 00:06:11;;;;;;;;;27.00;23.00;;;;;;;;5118887;28;13270;-77
2022/04/04 00:08:39;;;;;;;;;24.33;20.33;;;;;;;;5100158;28;15660;-76
2022/04/04 00:11:04;;;;;;;;;27.33;23.33;;;;;;;;5118695;28;12027;-76
2022/04/04 00:13:29;;;;;;;;;23.00;23.00;;;;;;;;5118921;28;8796;-76
2022/04/04 00:15:55;;;;;;;;;27.67;23.67;;;;;;;;5118669;28;11382;-76
2022/04/04 00:18:21;;;;;;;;;31.00;24.67;;;;;;;;5118411;28;11857;-76
2022/04/04 00:20:46;;;;;;;;;27.00;23.33;;;;;;;;5119157;28;12443;-75
2022/04/04 00:23:14;;;;;;;;;31.00;24.67;;;;;;;;5118995;28;13610;-78
2022/04/04 00:25:40;;;;;;;;;23.00;23.00;;;;;;;;5118493;28;13507;-76
2022/04/04 00:28:06;;;;;;;;;25.00;20.67;;;;;;;;5117868;28;13722;-75
2022/04/04 00:30:31;;;;;;;;;26.33;24.00;;;;;;;;5119033;28;11417;-76
2022/04/04 00:32:56;;;;;;;;;20.00;19.67;;;;;;;;5118528;28;11551;-76
2022/04/04 00:35:22;;;;;;;;;22.67;22.67;;;;;;;;5119351;28;12424;-75
2022/04/04 00:37:49;;;;;;;;;23.67;22.00;;;;;;;;5118537;28;11381;-76
2022/04/04 00:40:15;;;;;;;;;22.67;21.33;;;;;;;;5118402;28;11741;-76
2022/04/04 00:42:40;;;;;;;;;28.67;23.00;;;;;;;;5118597;28;11602;-76
2022/04/04 00:45:06;;;;;;;;;18.67;14.67;;;;;;;;5118008;28;11928;-77
2022/04/04 00:47:31;;;;;;;;;22.00;20.00;;;;;;;;5118624;28;13305;-76
2022/04/04 00:49:56;;;;;;;;;17.67;16.33;;;;;;;;5118536;27;13498;-75
2022/04/04 00:52:22;;;;;;;;;19.33;16.33;;;;;;;;5122187;28;13259;-75
2022/04/04 00:54:47;;;;;;;;;21.00;19.67;;;;;;;;5122927;28;8859;-76
2022/04/04 00:57:13;;;;;;;;;18.33;18.33;;;;;;;;5122114;28;13728;-74
2022/04/04 00:59:39;;;;;;;;;16.33;14.33;;;;;;;;5122199;28;13279;-76
2022/04/04 01:02:04;;;;;;;;;21.67;17.67;;;;;;;;5122322;28;9872;-75
2022/04/04 01:04:29;;;;;;;;;20.00;16.67;;;;;;;;5103146;28;13609;-74
2022/04/04 01:06:55;;;;;;;;;20.00;14.33;;;;;;;;5121843;28;10569;-76
2022/04/04 01:09:20;;;;;;;;;15.00;13.00;;;;;;;;5121544;28;9072;-75
2022/04/04 01:12:01;;;;;;;;;20.67;18.00;;;;;;;;5102482;28;15581;-75
2022/04/04 01:14:26;;;;;;;;;15.00;12.67;;;;;;;;5121373;28;13965;-74
2022/04/04 01:16:51;;;;;;;;;10.33;10.33;;;;;;;;5121949;28;13276;-76
2022/04/04 01:19:16;;;;;;;;;15.67;13.00;;;;;;;;5122209;28;11381;-73
2022/04/04 01:21:42;;;;;;;;;15.00;15.00;;;;;;;;5121964;28;11447;-75
2022/04/04 01:24:16;;;;;;;;;16.33;15.00;;;;;;;;5122036;28;10808;-75
2022/04/04 01:26:45;;;;;;;;;18.33;13.00;;;;;;;;5121937;28;8919;-74
2022/04/04 01:29:10;;;;;;;;;13.00;13.00;;;;;;;;5121514;28;8806;-75
2022/04/04 01:31:36;;;;;;;;;14.00;12.67;;;;;;;;5121280;28;11461;-74
2022/04/04 01:34:01;;;;;;;;;14.33;14.33;;;;;;;;5122215;28;11784;-74
2022/04/04 01:36:26;;;;;;;;;15.00;13.67;;;;;;;;5122316;28;10601;-75
2022/04/04 01:38:51;;;;;;;;;20.33;18.00;;;;;;;;5121940;28;11606;-75
2022/04/04 01:41:17;;;;;;;;;14.67;14.33;;;;;;;;5121885;28;13462;-75
2022/04/04 01:43:42;;;;;;;;;21.00;18.00;;;;;;;;5121725;28;13284;-76
2022/04/04 01:46:26;;;;;;;;;15.00;15.00;;;;;;;;5121535;28;13412;-75
2022/04/04 01:48:52;;;;;;;;;18.00;18.00;;;;;;;;5121430;28;10461;-75
2022/04/04 01:51:18;;;;;;;;;20.67;19.67;;;;;;;;5121131;28;9794;-76
2022/04/04 01:53:43;;;;;;;;;22.67;18.00;;;;;;;;5121363;28;13199;-76
2022/04/04 01:56:09;;;;;;;;;16.33;15.67;;;;;;;;5120650;28;11534;-76
2022/04/04 01:58:35;;;;;;;;;18.00;15.67;;;;;;;;5121158;28;13259;-74
2022/04/04 02:01:10;;;;;;;;;18.00;14.67;;;;;;;;5120956;27;8765;-76
2022/04/04 02:03:36;;;;;;;;;14.33;11.00;;;;;;;;5121872;28;8772;-75
2022/04/04 02:06:02;;;;;;;;;15.00;14.00;;;;;;;;5121643;28;12662;-76
2022/04/04 02:08:28;;;;;;;;;15.67;15.00;;;;;;;;5120308;28;11637;-75
2022/04/04 02:10:53;;;;;;;;;19.67;15.67;;;;;;;;5121318;28;9576;-74
2022/04/04 02:13:18;;;;;;;;;17.00;14.67;;;;;;;;5120910;28;12662;-75
2022/04/04 02:15:44;;;;;;;;;14.33;14.00;;;;;;;;5120717;28;10529;-75
2022/04/04 02:18:09;;;;;;;;;17.00;14.33;;;;;;;;5101824;28;13984;-75
2022/04/04 02:20:34;;;;;;;;;16.33;12.00;;;;;;;;5101961;28;13309;-76
2022/04/04 02:23:00;;;;;;;;;12.00;12.00;;;;;;;;5120480;28;12522;-76
2022/04/04 02:25:26;;;;;;;;;15.00;12.00;;;;;;;;5121265;28;8977;-74
2022/04/04 02:27:51;;;;;;;;;15.33;10.33;;;;;;;;5102538;28;9338;-75
2022/04/04 02:30:16;;;;;;;;;15.00;15.00;;;;;;;;5121009;28;10355;-75
2022/04/04 02:32:42;;;;;;;;;14.00;9.67;;;;;;;;5121029;28;10556;-75
2022/04/04 02:35:08;;;;;;;;;15.33;14.33;;;;;;;;5120403;28;21458;-76
2022/04/04 02:37:34;;;;;;;;;16.00;15.00;;;;;;;;5119840;28;22528;-75
2022/04/04 02:40:00;;;;;;;;;16.67;13.33;;;;;;;;5120307;28;11388;-75
2022/04/04 02:42:25;;;;;;;;;15.33;12.00;;;;;;;;5120191;28;10347;-76
2022/04/04 02:44:51;;;;;;;;;15.33;13.33;;;;;;;;5121006;28;11591;-75
2022/04/04 02:47:16;;;;;;;;;13.67;13.33;;;;;;;;5120745;28;9043;-75
2022/04/04 02:49:41;;;;;;;;;12.00;12.00;;;;;;;;5120622;28;8859;-75
2022/04/04 02:52:06;;;;;;;;;18.00;11.00;;;;;;;;5120585;28;12013;-75
2022/04/04 02:54:32;;;;;;;;;15.00;11.33;;;;;;;;5120563;28;8836;-74
2022/04/04 02:56:58;;;;;;;;;14.33;12.00;;;;;;;;5119767;28;11513;-76
2022/04/04 02:59:23;;;;;;;;;21.00;15.33;;;;;;;;5119899;28;11558;-75
2022/04/04 03:01:48;;;;;;;;;12.67;12.67;;;;;;;;5119780;28;13356;-75
2022/04/04 03:04:17;;;;;;;;;18.33;18.00;;;;;;;;5119768;28;14348;-75
2022/04/04 03:06:42;;;;;;;;;16.00;12.67;;;;;;;;5120285;28;11464;-76
2022/04/04 03:09:07;;;;;;;;;21.00;17.33;;;;;;;;5119752;28;12032;-76
2022/04/04 03:11:33;;;;;;;;;18.00;16.67;;;;;;;;5119972;28;13627;-75
2022/04/04 03:14:01;;;;;;;;;19.67;15.00;;;;;;;;5118848;27;13516;-75
2022/04/04 03:16:26;;;;;;;;;19.00;16.67;;;;;;;;5120340;28;11519;-75
2022/04/04 03:18:54;;;;;;;;;18.67;15.33;;;;;;;;5101545;28;12342;-75
2022/04/04 03:21:20;;;;;;;;;15.00;12.33;;;;;;;;5119458;28;12572;-74
2022/04/04 03:23:45;;;;;;;;;17.00;13.67;;;;;;;;5101747;28;12246;-75
2022/04/04 03:26:10;;;;;;;;;16.00;15.00;;;;;;;;5120196;28;11415;-74
2022/04/04 03:28:36;;;;;;;;;16.33;14.33;;;;;;;;5119868;28;11412;-74
2022/04/04 03:31:04;;;;;;;;;17.33;16.00;;;;;;;;5120143;28;10539;-74
2022/04/04 03:33:29;;;;;;;;;22.00;15.33;;;;;;;;5120067;28;11597;-75
2022/04/04 03:35:54;;;;;;;;;15.00;13.33;;;;;;;;5120213;28;13434;-74
2022/04/04 03:38:20;;;;;;;;;17.00;15.33;;;;;;;;5120025;28;11429;-74
2022/04/04 03:40:45;;;;;;;;;20.33;18.33;;;;;;;;5119906;28;8915;-75
2022/04/04 03:43:11;;;;;;;;;16.00;16.00;;;;;;;;5119929;28;12441;-76
2022/04/04 03:45:36;;;;;;;;;17.67;15.00;;;;;;;;5119556;28;13508;-75
2022/04/04 03:48:02;;;;;;;;;23.33;17.67;;;;;;;;5119554;28;10315;-75
2022/04/04 03:50:28;;;;;;;;;14.00;14.00;;;;;;;;5119231;28;13778;-75
2022/04/04 03:52:54;;;;;;;;;19.67;18.00;;;;;;;;5100101;28;14740;-73
2022/04/04 03:55:20;;;;;;;;;18.33;18.00;;;;;;;;5119350;28;10588;-76
2022/04/04 03:57:46;;;;;;;;;19.33;17.00;;;;;;;;5119668;28;10644;-74
2022/04/04 04:00:12;;;;;;;;;21.00;18.33;;;;;;;;5118982;28;8849;-74
2022/04/04 04:02:37;;;;;;;;;23.33;18.00;;;;;;;;5119168;28;13407;-74
2022/04/04 04:05:03;;;;;;;;;22.00;19.67;;;;;;;;5118884;28;11925;-75
2022/04/04 04:07:28;;;;;;;;;18.67;16.00;;;;;;;;5099969;28;13245;-77
2022/04/04 04:09:54;;;;;;;;;18.33;16.33;;;;;;;;5119318;28;13195;-76
2022/04/04 04:12:20;;;;;;;;;15.00;15.00;;;;;;;;5119673;28;8776;-76
2022/04/04 04:14:46;;;;;;;;;20.00;17.00;;;;;;;;5119190;28;11593;-76
2022/04/04 04:17:13;;;;;;;;;19.00;16.33;;;;;;;;5100365;28;11295;-75
2022/04/04 04:22:22;;;;;;;;;25.00;21.00;;;;;;;;5118785;28;13272;-76
2022/04/04 04:24:48;;;;;;;;;21.33;18.00;;;;;;;;5118098;28;13260;-75
2022/04/04 04:27:14;;;;;;;;;21.00;17.67;;;;;;;;5119208;28;11481;-75
2022/04/04 04:29:39;;;;;;;;;21.00;17.67;;;;;;;;5119218;28;10392;-76
2022/04/04 04:32:05;;;;;;;;;19.00;18.00;;;;;;;;5100606;28;8907;-74
2022/04/04 04:34:30;;;;;;;;;20.67;17.67;;;;;;;;5118925;28;13612;-75
2022/04/04 04:36:56;;;;;;;;;15.67;14.33;;;;;;;;5118569;28;13321;-76
2022/04/04 04:39:21;;;;;;;;;22.67;19.67;;;;;;;;5118780;28;13362;-75
2022/04/04 04:41:47;;;;;;;;;21.00;21.00;;;;;;;;5127232;27;13216;-75
2022/04/04 04:44:12;;;;;;;;;23.00;21.33;;;;;;;;5126521;27;12688;-75
2022/04/04 04:46:37;;;;;;;;;27.00;21.00;;;;;;;;5128007;27;12776;-76
2022/04/04 04:49:03;;;;;;;;;24.33;22.67;;;;;;;;5128484;27;11753;-74
2022/04/04 04:51:28;;;;;;;;;28.67;27.00;;;;;;;;5128493;27;11893;-74
2022/04/04 04:53:54;;;;;;;;;23.67;23.00;;;;;;;;5126934;27;11375;-75
2022/04/04 04:56:19;;;;;;;;;26.67;21.33;;;;;;;;5128516;27;8915;-73
2022/04/04 04:58:44;;;;;;;;;26.00;24.00;;;;;;;;5109326;27;13744;-74
2022/04/04 05:01:10;;;;;;;;;25.33;24.33;;;;;;;;5126297;27;10405;-74
2022/04/04 05:03:35;;;;;;;;;24.67;23.33;;;;;;;;5128605;27;12720;-74
2022/04/04 05:06:00;;;;;;;;;21.67;19.67;;;;;;;;5127492;27;10416;-75
2022/04/04 05:08:26;;;;;;;;;28.00;20.00;;;;;;;;5126561;27;12271;-74
2022/04/04 05:10:52;;;;;;;;;20.33;18.67;;;;;;;;5128197;27;12279;-76
2022/04/04 05:13:17;;;;;;;;;23.33;19.67;;;;;;;;5105589;27;12639;-77
2022/04/04 05:15:44;;;;;;;;;22.00;22.00;;;;;;;;5130354;27;8833;-78
2022/04/04 05:18:09;;;;;;;;;22.33;20.33;;;;;;;;5134843;27;13482;-77
2022/04/04 05:20:35;;;;;;;;;26.67;24.33;;;;;;;;5126538;27;10506;-78
2022/04/04 05:23:00;;;;;;;;;22.33;19.67;;;;;;;;5127713;27;10802;-83
2022/04/04 05:25:25;;;;;;;;;22.67;21.00;;;;;;;;5109187;27;13059;-85
2022/04/04 05:27:52;;;;;;;;;29.00;21.67;;;;;;;;5128486;27;12428;-83
2022/04/04 05:30:18;;;;;;;;;15.33;13.67;;;;;;;;5108414;27;12052;-84
2022/04/04 05:32:43;;;;;;;;;22.00;15.67;;;;;;;;5126971;27;12175;-82
2022/04/04 05:35:09;;;;;;;;;21.00;18.33;;;;;;;;5110228;27;14254;-81
2022/04/04 05:37:35;;;;;;;;;23.33;19.00;;;;;;;;5111521;27;13497;-84
2022/04/04 05:40:00;;;;;;;;;19.67;19.67;;;;;;;;5110142;27;13505;-77
2022/04/04 05:42:25;;;;;;;;;51.00;42.33;;;;;;;;5111928;27;13932;-87
2022/04/04 05:44:51;;;;;;;;;33.00;28.33;;;;;;;;5132380;27;14841;-84
2022/04/04 05:47:19;;;;;;;;;40.33;36.67;;;;;;;;5111098;27;12779;-80
2022/04/04 05:49:45;;;;;;;;;34.67;31.00;;;;;;;;5112005;27;14847;-86
2022/04/04 05:52:10;;;;;;;;;34.00;32.67;;;;;;;;5131121;27;13417;-71
2022/04/04 05:54:53;;;;;;;;;31.33;27.00;;;;;;;;5129943;27;10532;-71
2022/04/04 05:57:19;;;;;;;;;28.33;28.00;;;;;;;;5112192;27;14164;-74
2022/04/04 05:59:44;;;;;;;;;31.67;27.00;;;;;;;;5129998;27;10851;-76
2022/04/04 06:02:10;;;;;;;;;24.00;22.00;;;;;;;;5109466;27;12634;-79
2022/04/04 06:04:36;;;;;;;;;23.67;22.33;;;;;;;;5113580;27;14847;-83
2022/04/04 06:07:02;;;;;;;;;20.00;20.00;;;;;;;;5112184;27;12980;-76
2022/04/04 06:09:27;;;;;;;;;27.33;24.67;;;;;;;;5133797;27;11540;-87
2022/04/04 06:11:52;;;;;;;;;28.33;26.33;;;;;;;;5131609;27;11596;-83
2022/04/04 06:14:18;;;;;;;;;27.67;23.00;;;;;;;;5114198;27;11576;-81
2022/04/04 06:16:43;;;;;;;;;21.33;21.33;;;;;;;;5131174;27;11580;-80
2022/04/04 06:19:10;;;;;;;;;25.33;22.67;;;;;;;;5113298;27;13808;-83
2022/04/04 06:21:36;;;;;;;;;18.00;16.67;;;;;;;;5113341;27;13876;-80
2022/04/04 06:24:02;;;;;;;;;31.33;19.33;;;;;;;;5130957;27;12486;-81
2022/04/04 06:26:28;;;;;;;;;21.33;18.67;;;;;;;;5113543;27;13503;-83
2022/04/04 06:28:54;;;;;;;;;20.33;20.33;;;;;;;;5129653;27;13837;-84
2022/04/04 06:31:19;;;;;;;;;23.67;22.67;;;;;;;;5131260;27;12181;-80
2022/04/04 06:33:45;;;;;;;;;25.33;24.00;;;;;;;;5140038;27;12696;-81
2022/04/04 06:36:11;;;;;;;;;24.00;18.67;;;;;;;;5120864;27;13543;-78
2022/04/04 06:38:36;;;;;;;;;15.67;15.67;;;;;;;;5131517;27;12263;-84
2022/04/04 06:41:01;;;;;;;;;23.67;22.00;;;;;;;;5110388;27;12723;-81
2022/04/04 06:43:27;;;;;;;;;22.67;20.00;;;;;;;;5129494;27;13317;-81
2022/04/04 06:45:52;;;;;;;;;24.33;22.00;;;;;;;;5130732;27;8790;-80
2022/04/04 06:48:18;;;;;;;;;26.33;24.33;;;;;;;;5130639;27;10369;-79
2022/04/04 06:50:43;;;;;;;;;18.33;16.67;;;;;;;;5128102;27;11707;-77
2022/04/04 06:53:09;;;;;;;;;23.33;22.00;;;;;;;;5122943;27;13475;-78
2022/04/04 06:55:38;;;;;;;;;29.67;23.00;;;;;;;;5120254;28;13305;-80
2022/04/04 06:58:03;;;;;;;;;33.33;24.33;;;;;;;;5120240;28;10691;-79
2022/04/04 07:00:28;;;;;;;;;28.33;25.33;;;;;;;;5101164;28;13843;-80
2022/04/04 07:02:55;;;;;;;;;18.33;16.00;;;;;;;;5101282;28;12641;-80
2022/04/04 07:05:21;;;;;;;;;23.33;23.33;;;;;;;;5120149;28;13483;-80
2022/04/04 07:07:46;;;;;;;;;18.33;18.33;;;;;;;;5119543;28;13295;-80
2022/04/04 07:10:11;;;;;;;;;31.67;28.67;;;;;;;;5119726;28;10625;-80
2022/04/04 07:12:41;;;;;;;;;27.33;24.67;;;;;;;;5120254;28;14406;-83
2022/04/04 07:15:07;;;;;;;;;22.67;21.00;;;;;;;;5119297;28;13523;-82
2022/04/04 07:17:33;;;;;;;;;28.00;25.00;;;;;;;;5120507;28;11484;-79
2022/04/04 07:19:58;;;;;;;;;21.67;17.67;;;;;;;;5120264;28;10474;-77
2022/04/04 07:22:24;;;;;;;;;25.67;21.33;;;;;;;;5101158;28;12555;-79
2022/04/04 07:24:50;;;;;;;;;23.33;21.67;;;;;;;;5121641;27;12364;-79
2022/04/04 07:27:16;;;;;;;;;24.00;22.33;;;;;;;;5128454;27;11760;-78
2022/04/04 07:29:41;;;;;;;;;26.67;24.33;;;;;;;;5129772;27;12630;-79
2022/04/04 07:32:09;;;;;;;;;27.33;24.00;;;;;;;;5134629;27;10423;-75
2022/04/04 07:34:34;;;;;;;;;23.33;22.33;;;;;;;;5140074;27;12125;-74
2022/04/04 07:37:00;;;;;;;;;25.67;24.33;;;;;;;;5139241;27;11474;-82
2022/04/04 07:39:25;;;;;;;;;23.67;23.67;;;;;;;;5138882;27;10568;-79
2022/04/04 07:41:53;;;;;;;;;24.33;22.33;;;;;;;;5139350;27;11628;-76
2022/04/04 07:44:18;;;;;;;;;24.67;21.00;;;;;;;;5138877;27;11466;-75
2022/04/04 07:46:44;;;;;;;;;22.00;20.00;;;;;;;;5139358;27;12014;-76
2022/04/04 07:49:09;;;;;;;;;21.67;20.67;;;;;;;;5138496;27;10537;-76
2022/04/04 07:51:35;;;;;;;;;14.00;13.67;;;;;;;;5140113;27;11389;-76
2022/04/04 07:54:00;;;;;;;;;25.00;21.67;;;;;;;;5139459;27;12173;-76
2022/04/04 07:56:25;;;;;;;;;17.33;17.33;;;;;;;;5139349;27;12081;-76
2022/04/04 07:58:50;;;;;;;;;20.67;20.33;;;;;;;;5139055;27;13732;-76
2022/04/04 08:01:16;;;;;;;;;22.00;20.67;;;;;;;;5138661;27;13319;-75
2022/04/04 08:03:41;;;;;;;;;23.33;21.67;;;;;;;;5139046;27;11864;-80
2022/04/04 08:06:06;;;;;;;;;20.33;17.67;;;;;;;;5139640;27;10359;-78
2022/04/04 08:08:32;;;;;;;;;16.67;16.00;;;;;;;;5138833;27;9531;-77
2022/04/04 08:11:02;;;;;;;;;21.00;20.00;;;;;;;;5131504;27;13355;-77
2022/04/04 08:13:27;;;;;;;;;22.33;17.00;;;;;;;;5126057;27;12368;-75
2022/04/04 08:15:56;;;;;;;;;22.67;22.67;;;;;;;;5128079;27;11379;-76
2022/04/04 08:18:23;;;;;;;;;21.67;20.33;;;;;;;;5128731;27;12801;-79
2022/04/04 08:20:48;;;;;;;;;24.33;22.67;;;;;;;;5126567;27;11374;-82
2022/04/04 08:23:14;;;;;;;;;22.00;19.33;;;;;;;;5130030;27;11907;-79
2022/04/04 08:25:40;;;;;;;;;14.67;14.67;;;;;;;;5127172;27;12382;-82
2022/04/04 08:28:06;;;;;;;;;17.75;17.75;;;;;;;;5128292;27;13401;-80
2022/04/04 08:30:32;;;;;;;;;22.25;19.50;;;;;;;;5126235;27;11469;-81
2022/04/04 08:32:58;;;;;;;;;20.00;18.50;;;;;;;;5126292;27;13248;-80
2022/04/04 08:35:23;;;;;;;;;25.00;20.50;;;;;;;;5128620;27;10494;-83
2022/04/04 08:37:49;;;;;;;;;26.25;22.25;;;;;;;;5139241;27;9557;-84
2022/04/04 08:40:18;;;;;;;;;22.50;20.00;;;;;;;;5127821;27;11436;-82
2022/04/04 08:42:43;;;;;;;;;20.25;19.00;;;;;;;;5126971;27;12485;-82
2022/04/04 08:45:09;;;;;;;;;18.00;14.00;;;;;;;;5133520;27;11459;-81
2022/04/04 08:47:35;;;;;;;;;18.00;16.25;;;;;;;;5110186;27;12525;-82
2022/04/04 08:50:01;;;;;;;;;19.50;16.25;;;;;;;;5127179;27;9189;-82
2022/04/04 08:52:29;;;;;;;;;14.25;14.25;;;;;;;;5128014;27;12208;-83
2022/04/04 08:54:55;;;;;;;;;15.00;14.00;;;;;;;;5128360;27;10592;-75
2022/04/04 08:57:21;;;;;;;;;16.00;13.50;;;;;;;;5108960;27;13778;-78
2022/04/04 08:59:46;;;;;;;;;18.25;17.25;;;;;;;;5127339;27;11449;-77
2022/04/04 09:02:12;;;;;;;;;14.00;13.25;;;;;;;;5128952;27;11546;-79
2022/04/04 09:04:38;;;;;;;;;12.50;11.25;;;;;;;;5108967;27;12411;-80
2022/04/04 09:07:07;;;;;;;;;14.50;14.25;;;;;;;;5128439;27;10801;-88
2022/04/04 09:09:41;;;;;;;;;12.00;12.00;;;;;;;;5095279;27;10992;-77
2022/04/04 09:12:07;;;;;;;;;14.00;13.50;;;;;;;;5141146;27;11455;-83
2022/04/04 09:14:37;;;;;;;;;12.75;12.75;;;;;;;;5143652;27;12105;-85
2022/04/04 09:17:02;;;;;;;;;10.00;9.00;;;;;;;;5132094;27;11635;-85
2022/04/04 09:19:29;;;;;;;;;13.00;12.00;;;;;;;;5130403;27;21520;-84
2022/04/04 09:21:54;;;;;;;;;12.50;11.00;;;;;;;;5133763;27;21448;-84
2022/04/04 09:24:22;;;;;;;;;13.25;13.25;;;;;;;;5123984;27;10365;-86
2022/04/04 09:26:48;;;;;;;;;13.00;13.00;;;;;;;;5131053;27;12003;-85
2022/04/04 09:29:16;;;;;;;;;11.00;11.00;;;;;;;;5131109;27;9969;-85
2022/04/04 09:32:10;;;;;;;;;16.00;14.25;;;;;;;;5131586;27;9800;-85
2022/04/04 09:34:57;;;;;;;;;12.00;11.25;;;;;;;;5131934;27;11739;-85
2022/04/04 09:37:24;;;;;;;;;12.00;12.00;;;;;;;;5133887;27;9632;-86
2022/04/04 09:39:50;;;;;;;;;12.67;12.00;;;;;;;;5111680;28;11291;-87
2022/04/04 09:42:19;;;;;;;;;13.00;11.00;;;;;;;;5134628;27;9399;-86
2022/04/04 09:44:57;;;;;;;;;10.00;10.00;;;;;;;;5135222;27;10828;-85
2022/04/04 09:47:23;;;;;;;;;10.00;9.00;;;;;;;;5146468;27;9157;-86
2022/04/04 09:49:49;;;;;;;;;10.67;9.00;;;;;;;;5140615;27;16491;-82
2022/04/04 09:52:14;;;;;;;;;9.00;8.67;;;;;;;;5130617;27;8801;-85
2022/04/04 09:54:41;;;;;;;;;9.00;8.00;;;;;;;;5133378;27;21765;-85
2022/04/04 09:57:14;;;;;;;;;6.75;6.75;;;;;;;;5113110;27;9803;-85
2022/04/04 09:59:40;;;;;;;;;7.00;6.00;;;;;;;;5124853;27;11706;-84
2022/04/04 10:02:06;;;;;;;;;7.33;7.33;;;;;;;;5131904;27;11802;-86
2022/04/04 10:04:32;;;;;;;;;8.33;7.67;;;;;;;;5131586;27;10255;-84
2022/04/04 10:06:57;;;;;;;;;6.00;6.00;;;;;;;;5130119;27;11844;-84
2022/04/04 10:09:23;;;;;;;;;5.00;5.00;;;;;;;;5131905;27;11442;-84
2022/04/04 10:11:48;;;;;;;;;6.00;6.00;;;;;;;;5131198;27;8792;-85
2022/04/04 10:14:15;;;;;;;;;5.00;5.00;;;;;;;;5130501;27;8782;-85
2022/04/04 10:16:42;;;;;;;;;6.00;6.00;;;;;;;;5111379;27;11584;-84
2022/04/04 10:19:10;;;;;;;;;7.00;7.00;;;;;;;;5112977;27;10754;-85
2022/04/04 10:21:35;;;;;;;;;5.33;5.33;;;;;;;;5113909;27;9089;-85
2022/04/04 10:24:01;;;;;;;;;7.00;7.00;;;;;;;;5111023;27;13297;-85
2022/04/04 10:26:38;;;;;;;;;5.00;5.00;;;;;;;;5143006;27;11345;-86
2022/04/04 10:29:15;;;;;;;;;6.00;5.00;;;;;;;;5139462;27;8763;-87
2022/04/04 10:31:42;;;;;;;;;4.75;4.75;;;;;;;;5123165;27;9300;-87
2022/04/04 10:34:15;;;;;;;;;4.00;4.00;;;;;;;;5124046;27;11726;-88
2022/04/04 10:36:56;;;;;;;;;6.50;5.75;;;;;;;;5141818;27;9627;-88
2022/04/04 10:39:36;;;;;;;;;7.00;7.00;;;;;;;;5123148;27;11938;-88
2022/04/04 10:42:03;;;;;;;;;8.25;7.75;;;;;;;;5141563;27;11387;-87
2022/04/04 10:44:47;;;;;;;;;7.00;7.00;;;;;;;;5142218;27;12489;-88
2022/04/04 10:47:22;;;;;;;;;9.75;8.00;;;;;;;;5109494;28;11677;-87
2022/04/04 10:49:48;;;;;;;;;9.00;9.00;;;;;;;;5120616;28;11183;-89
2022/04/04 10:52:16;;;;;;;;;8.25;7.75;;;;;;;;5121732;28;10862;-87
2022/04/04 10:54:42;;;;;;;;;11.00;9.25;;;;;;;;5102220;28;14917;-81
2022/04/04 10:57:17;;;;;;;;;9.50;8.75;;;;;;;;5121275;28;21407;-87
2022/04/04 10:59:46;;;;;;;;;8.00;8.00;;;;;;;;5102045;28;24005;-84
2022/04/04 11:02:13;;;;;;;;;8.50;7.25;;;;;;;;5121139;28;11364;-76
2022/04/04 11:07:38;;;;;;;;;9.25;8.00;;;;;;;;5102465;28;12399;-79
2022/04/04 11:07:39;;;;;;;;;10.25;9.00;;;;;;;;5119801;28;11572;-78
2022/04/04 11:10:14;;;;;;;;;10.25;9.50;;;;;;;;5120541;28;22618;-77
2022/04/04 11:12:58;;;;;;;;;12.50;9.00;;;;;;;;5120477;28;10932;-77
2022/04/04 11:15:45;;;;;;;;;9.25;9.25;;;;;;;;5120601;28;11006;-78
2022/04/04 11:18:11;;;;;;;;;12.00;10.00;;;;;;;;5120399;28;21743;-77
2022/04/04 11:20:43;;;;;;;;;10.00;8.00;;;;;;;;5127930;27;22446;-77
2022/04/04 11:23:11;;;;;;;;;9.00;9.00;;;;;;;;5129044;27;21444;-77
2022/04/04 11:25:48;;;;;;;;;8.75;8.75;;;;;;;;5130442;27;21705;-78
2022/04/04 11:28:15;;;;;;;;;9.75;9.00;;;;;;;;5099382;28;11882;-78
2022/04/04 11:30:41;;;;;;;;;12.50;11.75;;;;;;;;5117373;28;11402;-76
2022/04/04 11:33:11;;;;;;;;;8.50;8.00;;;;;;;;5119393;28;24001;-77
2022/04/04 11:35:36;;;;;;;;;7.50;7.50;;;;;;;;5119072;27;22868;-75
2022/04/04 11:38:05;;;;;;;;;7.75;7.75;;;;;;;;5125027;27;11394;-76
2022/04/04 11:40:35;;;;;;;;;10.75;9.25;;;;;;;;5140850;27;9629;-77
2022/04/04 11:43:04;;;;;;;;;10.75;10.50;;;;;;;;5139998;27;21781;-77
2022/04/04 11:45:35;;;;;;;;;13.50;12.00;;;;;;;;5141116;27;17061;-77
2022/04/04 11:48:02;;;;;;;;;11.00;11.00;;;;;;;;5140805;27;11439;-77
2022/04/04 11:50:30;;;;;;;;;9.50;9.25;;;;;;;;5140537;27;11386;-77
2022/04/04 11:52:59;;;;;;;;;13.00;13.00;;;;;;;;5140607;27;22359;-77
2022/04/04 11:55:28;;;;;;;;;13.00;8.50;;;;;;;;5140279;27;23626;-77
2022/04/04 11:57:57;;;;;;;;;9.00;8.00;;;;;;;;5139868;27;17436;-76
2022/04/04 12:00:23;;;;;;;;;13.50;12.25;;;;;;;;5121232;27;24109;-78
2022/04/04 12:02:49;;;;;;;;;13.25;12.00;;;;;;;;5139559;27;23569;-77
2022/04/04 12:05:21;;;;;;;;;14.00;13.00;;;;;;;;5140807;27;8868;-77
2022/04/04 12:07:47;;;;;;;;;11.75;10.75;;;;;;;;5121088;27;13608;-77
2022/04/04 12:10:16;;;;;;;;;13.50;12.50;;;;;;;;5139694;27;11888;-75
2022/04/04 12:12:42;;;;;;;;;6.50;6.50;;;;;;;;5140508;27;11448;-78
2022/04/04 12:15:07;;;;;;;;;14.50;12.75;;;;;;;;5121147;27;22641;-78
2022/04/04 12:17:33;;;;;;;;;11.00;10.00;;;;;;;;5139365;27;22782;-77
2022/04/04 12:19:59;;;;;;;;;11.00;11.00;;;;;;;;5121327;27;13289;-76
2022/04/04 12:25:18;;;;;;;;;8.25;7.00;;;;;;;;5140691;27;12226;-77
2022/04/04 12:27:57;;;;;;;;;11.75;11.00;;;;;;;;5139514;27;22778;-78
2022/04/04 12:30:33;;;;;;;;;9.00;9.00;;;;;;;;5139122;27;22458;-78
2022/04/04 12:33:12;;;;;;;;;12.25;10.00;;;;;;;;5140234;27;22589;-78
2022/04/04 12:35:42;;;;;;;;;11.00;10.75;;;;;;;;5139455;27;22489;-77
2022/04/04 12:38:08;;;;;;;;;11.25;11.00;;;;;;;;5120774;27;12153;-77
2022/04/04 12:40:33;;;;;;;;;12.25;10.75;;;;;;;;5139371;27;11451;-77
2022/04/04 12:43:09;;;;;;;;;9.25;8.25;;;;;;;;5121652;27;13062;-77
2022/04/04 12:45:44;;;;;;;;;11.25;11.25;;;;;;;;5140993;27;22271;-77
2022/04/04 12:48:11;;;;;;;;;14.00;11.00;;;;;;;;5143380;27;22304;-76
2022/04/04 12:50:37;;;;;;;;;13.25;8.25;;;;;;;;5143595;27;12980;-77
2022/04/04 12:53:04;;;;;;;;;11.00;10.00;;;;;;;;5142924;27;21567;-77
2022/04/04 12:55:29;;;;;;;;;9.25;9.00;;;;;;;;5124789;27;22929;-77
2022/04/04 12:57:54;;;;;;;;;11.25;10.00;;;;;;;;5143783;27;22215;-77
2022/04/04 13:00:27;;;;;;;;;11.00;9.00;;;;;;;;5143668;27;22196;-77
2022/04/04 13:02:52;;;;;;;;;9.50;9.00;;;;;;;;5125155;27;23900;-78
2022/04/04 13:05:21;;;;;;;;;8.00;8.00;;;;;;;;5149220;27;16360;-78
2022/04/04 13:07:50;;;;;;;;;8.00;7.25;;;;;;;;5152234;27;10332;-76
2022/04/04 13:10:15;;;;;;;;;7.00;6.25;;;;;;;;5148677;27;11691;-78
2022/04/04 13:12:41;;;;;;;;;6.50;6.00;;;;;;;;5144040;27;12110;-76
2022/04/04 13:15:07;;;;;;;;;6.50;6.50;;;;;;;;5143332;27;11452;-77
2022/04/04 13:17:36;;;;;;;;;14.50;10.00;;;;;;;;5143488;27;12248;-78
2022/04/04 13:20:02;;;;;;;;;11.75;10.25;;;;;;;;5123516;27;23718;-77
2022/04/04 13:22:28;;;;;;;;;11.75;10.00;;;;;;;;5142433;27;11698;-76
2022/04/04 13:24:55;;;;;;;;;11.50;9.00;;;;;;;;5142991;27;11462;-77
2022/04/04 13:27:21;;;;;;;;;13.25;12.25;;;;;;;;5124065;27;23780;-77
2022/04/04 13:29:47;;;;;;;;;10.25;10.25;;;;;;;;5142570;27;21668;-77
2022/04/04 13:32:14;;;;;;;;;12.00;12.00;;;;;;;;5142908;27;11576;-76
2022/04/04 13:34:41;;;;;;;;;15.75;11.75;;;;;;;;5143833;27;11811;-77
2022/04/04 13:37:07;;;;;;;;;13.50;11.75;;;;;;;;5142474;27;12619;-78
2022/04/04 13:39:32;;;;;;;;;17.00;14.00;;;;;;;;5142613;27;11463;-77
2022/04/04 13:41:58;;;;;;;;;18.00;13.50;;;;;;;;5123749;27;12052;-78
2022/04/04 13:44:24;;;;;;;;;21.00;18.50;;;;;;;;5142401;27;11461;-78
2022/04/04 13:46:49;;;;;;;;;19.00;17.50;;;;;;;;5143188;27;11445;-78
2022/04/04 13:49:15;;;;;;;;;16.00;12.25;;;;;;;;5142328;27;10343;-77
2022/04/04 13:51:40;;;;;;;;;16.00;12.75;;;;;;;;5143125;27;11358;-78
2022/04/04 13:54:05;;;;;;;;;9.00;9.00;;;;;;;;5123715;27;9510;-78
2022/04/04 13:56:31;;;;;;;;;10.50;9.00;;;;;;;;5142341;27;23418;-77
2022/04/04 13:58:57;;;;;;;;;10.50;10.25;;;;;;;;5141464;27;16654;-77
2022/04/04 14:01:24;;;;;;;;;12.50;11.00;;;;;;;;5142036;27;16625;-78
2022/04/04 14:03:51;;;;;;;;;10.25;9.50;;;;;;;;5123697;27;13681;-73
2022/04/04 14:06:16;;;;;;;;;13.50;13.00;;;;;;;;5141895;27;21666;-74
2022/04/04 14:08:44;;;;;;;;;11.75;11.75;;;;;;;;5122903;27;24044;-74
2022/04/04 14:11:12;;;;;;;;;12.25;11.00;;;;;;;;5135754;27;11421;-77
2022/04/04 14:13:39;;;;;;;;;13.25;12.25;;;;;;;;5129076;27;11920;-77
2022/04/04 14:16:05;;;;;;;;;13.00;11.00;;;;;;;;5128821;27;11607;-78
2022/04/04 14:18:30;;;;;;;;;11.75;10.50;;;;;;;;5130823;27;11474;-77
2022/04/04 14:20:56;;;;;;;;;10.00;10.00;;;;;;;;5111798;27;13495;-77
2022/04/04 14:23:21;;;;;;;;;8.50;8.50;;;;;;;;5101981;28;13866;-77
2022/04/04 14:25:47;;;;;;;;;9.25;9.25;;;;;;;;5126092;27;22321;-77
2022/04/04 14:28:12;;;;;;;;;10.00;9.00;;;;;;;;5131368;27;11548;-77